Time;durP1;ratioP1;P1;durP2;ratioP2;P2;SDS_P1;SDS_P2;PMS_P1;PMS_P2;Temp;Humidity;BMP_temperature;BMP_pressure;BME280_temperature;BME280_humidity;BME280_pressure;Samples;Min_cycle;Max_cycle;Signal;HPM_P1;HPM_P2
2022/04/06 00:00:28;;;;;;;;;;;;;;;;;;4188449;28;1887;-60
2022/04/06 00:02:49;;;;;;;;;;;;;;;;;;4188360;28;970;-62
2022/04/06 00:05:10;;;;;;;;;;;;;;;;;;4188603;28;1143;-62
2022/04/06 00:07:30;;;;;;;;;;;;;;;;;;4188555;28;1276;-62
2022/04/06 00:09:51;;;;;;;;;;;;;;;;;;4186892;28;958;-62
2022/04/06 00:12:11;;;;;;;;;;;;;;;;;;4188423;28;1398;-62
2022/04/06 00:14:32;;;;;;;;;;;;;;;;;;4188341;28;994;-62
2022/04/06 00:16:54;;;;;;;;;;;;;;;;;;4188190;28;970;-62
2022/04/06 00:19:15;;;;;;;;;;;;;;;;;;4188172;28;1983;-62
2022/04/06 00:21:35;;;;;;;;;;;;;;;;;;4188012;28;1068;-62
2022/04/06 00:23:56;;;;;;;;;;;;;;;;;;4188069;28;975;-62
2022/04/06 00:26:17;;;;;;;;;;;;;;;;;;4187792;28;975;-62
2022/04/06 00:28:38;;;;;;;;;;;;;;;;;;4188001;28;1178;-62
2022/04/06 00:30:58;;;;;;;;;;;;;;;;;;4187813;28;1253;-63
2022/04/06 00:33:19;;;;;;;;;;;;;;;;;;4186579;28;1086;-63
2022/04/06 00:35:40;;;;;;;;;;;;;;;;;;4188021;28;1137;-62
2022/04/06 00:38:00;;;;;;;;;;;;;;;;;;4187819;28;946;-63
2022/04/06 00:40:22;;;;;;;;;;;;;;;;;;4187729;28;1913;-63
2022/04/06 00:42:43;;;;;;;;;;;;;;;;;;4187839;28;1177;-62
2022/04/06 00:45:04;;;;;;;;;;;;;;;;;;4187952;28;1084;-62
2022/04/06 00:47:25;;;;;;;;;;;;;;;;;;4187800;28;983;-62
2022/04/06 00:49:46;;;;;;;;;;;;;;;;;;4187797;28;1060;-62
2022/04/06 00:52:06;;;;;;;;;;;;;;;;;;4186470;28;986;-62
2022/04/06 00:54:27;;;;;;;;;;;;;;;;;;4187761;28;953;-62
2022/04/06 00:56:48;;;;;;;;;;;;;;;;;;4187557;28;946;-63
2022/04/06 00:59:08;;;;;;;;;;;;;;;;;;4187267;28;1151;-62
2022/04/06 01:01:41;;;;;;;;;;;;;;;;;;4188426;28;1043;-62
2022/04/06 01:04:02;;;;;;;;;;;;;;;;;;4177371;28;1112;-63
2022/04/06 01:06:23;;;;;;;;;;;;;;;;;;4185414;28;1488;-63
2022/04/06 01:08:44;;;;;;;;;;;;;;;;;;4187148;28;1342;-62
2022/04/06 01:11:05;;;;;;;;;;;;;;;;;;4186892;28;1350;-63
2022/04/06 01:13:25;;;;;;;;;;;;;;;;;;4186749;28;1332;-62
2022/04/06 01:15:46;;;;;;;;;;;;;;;;;;4186821;28;1732;-64
2022/04/06 01:18:07;;;;;;;;;;;;;;;;;;4187217;28;1216;-62
2022/04/06 01:20:29;;;;;;;;;;;;;;;;;;4186833;28;1983;-64
2022/04/06 01:22:49;;;;;;;;;;;;;;;;;;4187003;28;934;-64
2022/04/06 01:25:10;;;;;;;;;;;;;;;;;;4187025;28;1323;-62
2022/04/06 01:27:31;;;;;;;;;;;;;;;;;;4186893;28;1149;-63
2022/04/06 01:29:52;;;;;;;;;;;;;;;;;;4186728;28;1206;-62
2022/04/06 01:32:12;;;;;;;;;;;;;;;;;;4186997;28;1292;-63
2022/04/06 01:34:33;;;;;;;;;;;;;;;;;;4186890;28;1184;-62
2022/04/06 01:36:54;;;;;;;;;;;;;;;;;;4186812;28;1315;-62
2022/04/06 01:39:15;;;;;;;;;;;;;;;;;;4186021;28;1108;-62
2022/04/06 01:41:37;;;;;;;;;;;;;;;;;;4186767;28;1275;-62
2022/04/06 01:43:59;;;;;;;;;;;;;;;;;;4186592;28;1134;-62
2022/04/06 01:46:19;;;;;;;;;;;;;;;;;;4187085;28;986;-62
2022/04/06 01:52:12;;;;;;;;;;;;;;;;;;4187352;28;946;-63
2022/04/06 01:54:00;;;;;;;;;;;;;;;;;;4187439;28;833;-62
2022/04/06 01:56:20;;;;;;;;;;;;;;;;;;4187055;28;1055;-62
2022/04/06 01:58:41;;;;;;;;;;;;;;;;;;4186835;28;994;-63
2022/04/06 02:01:02;;;;;;;;;;;;;;;;;;4185907;28;2010;-62
2022/04/06 02:03:23;;;;;;;;;;;;;;;;;;4187183;28;1093;-62
2022/04/06 02:05:43;;;;;;;;;;;;;;;;;;4186749;28;1186;-62
2022/04/06 02:08:04;;;;;;;;;;;;;;;;;;4187085;28;1007;-63
2022/04/06 02:10:25;;;;;;;;;;;;;;;;;;4186806;28;1086;-62
2022/04/06 02:12:45;;;;;;;;;;;;;;;;;;4186637;28;981;-62
2022/04/06 02:15:06;;;;;;;;;;;;;;;;;;4186985;28;945;-63
2022/04/06 02:17:27;;;;;;;;;;;;;;;;;;4186937;28;1061;-63
2022/04/06 02:19:48;;;;;;;;;;;;;;;;;;4186433;28;1906;-62
2022/04/06 02:22:08;;;;;;;;;;;;;;;;;;4186774;28;1123;-63
2022/04/06 02:24:29;;;;;;;;;;;;;;;;;;4186902;28;969;-62
2022/04/06 02:26:50;;;;;;;;;;;;;;;;;;4186569;28;963;-62
2022/04/06 02:29:12;;;;;;;;;;;;;;;;;;4186613;28;1179;-62
2022/04/06 02:31:32;;;;;;;;;;;;;;;;;;4186820;28;1021;-62
2022/04/06 02:33:53;;;;;;;;;;;;;;;;;;4186479;28;1175;-63
2022/04/06 02:36:14;;;;;;;;;;;;;;;;;;4186488;28;1216;-62
2022/04/06 02:38:38;;;;;;;;;;;;;;;;;;4186886;28;899;-62
2022/04/06 02:41:00;;;;;;;;;;;;;;;;;;4186304;28;1909;-62
2022/04/06 02:43:20;;;;;;;;;;;;;;;;;;4184913;28;1034;-62
2022/04/06 02:45:41;;;;;;;;;;;;;;;;;;4186380;28;1099;-63
2022/04/06 02:48:02;;;;;;;;;;;;;;;;;;4186535;28;1131;-63
2022/04/06 02:50:23;;;;;;;;;;;;;;;;;;4188179;28;888;-62
2022/04/06 02:52:43;;;;;;;;;;;;;;;;;;4189391;28;1205;-62
2022/04/06 02:55:04;;;;;;;;;;;;;;;;;;4189393;28;1037;-63
2022/04/06 02:57:25;;;;;;;;;;;;;;;;;;4189303;28;1110;-62
2022/04/06 02:59:46;;;;;;;;;;;;;;;;;;4189595;28;918;-62
2022/04/06 03:02:07;;;;;;;;;;;;;;;;;;4189678;28;1004;-63
2022/04/06 03:04:28;;;;;;;;;;;;;;;;;;4189291;28;940;-63
2022/04/06 03:06:49;;;;;;;;;;;;;;;;;;4189236;28;1205;-62
2022/04/06 03:09:10;;;;;;;;;;;;;;;;;;4189253;28;1254;-62
2022/04/06 03:11:31;;;;;;;;;;;;;;;;;;4188368;28;1570;-63
2022/04/06 03:13:51;;;;;;;;;;;;;;;;;;4189049;28;1193;-62
2022/04/06 03:16:12;;;;;;;;;;;;;;;;;;4189334;28;1199;-63
2022/04/06 03:18:33;;;;;;;;;;;;;;;;;;4189251;28;981;-63
2022/04/06 03:20:54;;;;;;;;;;;;;;;;;;4172450;28;1910;-63
2022/04/06 03:23:15;;;;;;;;;;;;;;;;;;4172762;28;1030;-63
2022/04/06 03:25:35;;;;;;;;;;;;;;;;;;4172170;28;1416;-63
2022/04/06 03:27:56;;;;;;;;;;;;;;;;;;4172123;28;1010;-62
2022/04/06 03:30:17;;;;;;;;;;;;;;;;;;4172542;28;971;-63
2022/04/06 03:32:38;;;;;;;;;;;;;;;;;;4172349;28;1334;-63
2022/04/06 03:34:59;;;;;;;;;;;;;;;;;;4172326;28;1157;-63
2022/04/06 03:37:20;;;;;;;;;;;;;;;;;;4172103;28;1060;-63
2022/04/06 03:39:40;;;;;;;;;;;;;;;;;;4171002;28;969;-63
2022/04/06 03:42:01;;;;;;;;;;;;;;;;;;4172538;28;2001;-63
2022/04/06 03:44:21;;;;;;;;;;;;;;;;;;4172183;28;1121;-63
2022/04/06 03:46:42;;;;;;;;;;;;;;;;;;4172009;28;1967;-63
2022/04/06 03:49:03;;;;;;;;;;;;;;;;;;4184177;28;1389;-63
2022/04/06 03:51:24;;;;;;;;;;;;;;;;;;4185860;28;943;-63
2022/04/06 03:53:45;;;;;;;;;;;;;;;;;;4185607;28;1087;-63
2022/04/06 03:56:06;;;;;;;;;;;;;;;;;;4185720;28;1002;-63
2022/04/06 03:58:27;;;;;;;;;;;;;;;;;;4186721;28;1061;-63
2022/04/06 04:00:48;;;;;;;;;;;;;;;;;;4186392;28;1909;-63
2022/04/06 04:03:08;;;;;;;;;;;;;;;;;;4186563;28;954;-63
2022/04/06 04:05:29;;;;;;;;;;;;;;;;;;4186723;28;1018;-63
2022/04/06 04:07:50;;;;;;;;;;;;;;;;;;4186522;28;1088;-63
2022/04/06 04:10:11;;;;;;;;;;;;;;;;;;4185803;28;2110;-63
2022/04/06 04:12:32;;;;;;;;;;;;;;;;;;4185771;28;1817;-63
2022/04/06 04:14:52;;;;;;;;;;;;;;;;;;4185592;28;1301;-63
2022/04/06 04:17:13;;;;;;;;;;;;;;;;;;4186181;28;1384;-62
2022/04/06 04:19:34;;;;;;;;;;;;;;;;;;4185655;28;1201;-63
2022/04/06 04:21:55;;;;;;;;;;;;;;;;;;4186550;28;1926;-63
2022/04/06 04:24:15;;;;;;;;;;;;;;;;;;4186339;28;1164;-63
2022/04/06 04:26:36;;;;;;;;;;;;;;;;;;4186661;28;1450;-63
2022/04/06 04:28:57;;;;;;;;;;;;;;;;;;4186697;28;1003;-63
2022/04/06 04:31:18;;;;;;;;;;;;;;;;;;4186410;28;1047;-63
2022/04/06 04:33:39;;;;;;;;;;;;;;;;;;4185525;28;1961;-62
2022/04/06 04:36:00;;;;;;;;;;;;;;;;;;4186564;28;1141;-62
2022/04/06 04:38:20;;;;;;;;;;;;;;;;;;4186163;28;1103;-63
2022/04/06 04:40:41;;;;;;;;;;;;;;;;;;4171089;28;1989;-63
2022/04/06 04:43:03;;;;;;;;;;;;;;;;;;4170797;28;1018;-63
2022/04/06 04:45:23;;;;;;;;;;;;;;;;;;4170792;28;1087;-64
2022/04/06 04:47:44;;;;;;;;;;;;;;;;;;4171717;28;1276;-62
2022/04/06 04:50:05;;;;;;;;;;;;;;;;;;4171602;28;1198;-63
2022/04/06 04:52:25;;;;;;;;;;;;;;;;;;4179261;28;1883;-61
2022/04/06 04:54:46;;;;;;;;;;;;;;;;;;4187969;28;938;-61
2022/04/06 04:57:07;;;;;;;;;;;;;;;;;;4187667;28;826;-61
2022/04/06 04:59:27;;;;;;;;;;;;;;;;;;4187773;28;962;-60
2022/04/06 05:01:48;;;;;;;;;;;;;;;;;;4187563;28;1910;-60
2022/04/06 05:04:09;;;;;;;;;;;;;;;;;;4188046;28;1208;-61
2022/04/06 05:06:29;;;;;;;;;;;;;;;;;;4187864;28;966;-61
2022/04/06 05:08:50;;;;;;;;;;;;;;;;;;4187730;28;1386;-61
2022/04/06 05:11:11;;;;;;;;;;;;;;;;;;4187456;28;1326;-61
2022/04/06 05:13:32;;;;;;;;;;;;;;;;;;4186466;28;1254;-61
2022/04/06 05:15:53;;;;;;;;;;;;;;;;;;4187672;28;1202;-62
2022/04/06 05:18:13;;;;;;;;;;;;;;;;;;4187533;28;958;-61
2022/04/06 05:20:34;;;;;;;;;;;;;;;;;;4187453;28;2064;-61
2022/04/06 05:22:55;;;;;;;;;;;;;;;;;;4187493;28;1067;-61
2022/04/06 05:25:15;;;;;;;;;;;;;;;;;;4187441;28;1114;-61
2022/04/06 05:27:36;;;;;;;;;;;;;;;;;;4187394;28;1052;-61
2022/04/06 05:29:57;;;;;;;;;;;;;;;;;;4187510;28;1111;-61
2022/04/06 05:32:17;;;;;;;;;;;;;;;;;;4187328;28;1493;-60
2022/04/06 05:34:38;;;;;;;;;;;;;;;;;;4187738;28;825;-60
2022/04/06 05:36:59;;;;;;;;;;;;;;;;;;4186533;28;897;-61
2022/04/06 05:39:19;;;;;;;;;;;;;;;;;;4187274;28;946;-61
2022/04/06 05:41:40;;;;;;;;;;;;;;;;;;4187187;28;1963;-60
2022/04/06 05:44:01;;;;;;;;;;;;;;;;;;4187336;28;966;-61
2022/04/06 05:46:21;;;;;;;;;;;;;;;;;;4185828;28;1196;-61
2022/04/06 05:48:42;;;;;;;;;;;;;;;;;;4187346;28;961;-61
2022/04/06 05:51:04;;;;;;;;;;;;;;;;;;4186076;28;1225;-62
2022/04/06 05:53:25;;;;;;;;;;;;;;;;;;4187103;28;1431;-62
2022/04/06 05:55:47;;;;;;;;;;;;;;;;;;4187070;28;1185;-61
2022/04/06 05:58:07;;;;;;;;;;;;;;;;;;4187324;28;1241;-61
2022/04/06 06:00:28;;;;;;;;;;;;;;;;;;4186793;28;2055;-62
2022/04/06 06:02:51;;;;;;;;;;;;;;;;;;4186861;28;1914;-61
2022/04/06 06:05:12;;;;;;;;;;;;;;;;;;4187229;28;1258;-61
2022/04/06 06:07:32;;;;;;;;;;;;;;;;;;4170435;28;1040;-62
2022/04/06 06:09:53;;;;;;;;;;;;;;;;;;4170638;28;1452;-61
2022/04/06 06:12:14;;;;;;;;;;;;;;;;;;4169167;28;1342;-61
2022/04/06 06:14:35;;;;;;;;;;;;;;;;;;4170276;28;1000;-61
2022/04/06 06:16:55;;;;;;;;;;;;;;;;;;4170459;28;862;-62
2022/04/06 06:19:16;;;;;;;;;;;;;;;;;;4170136;28;1165;-62
2022/04/06 06:21:37;;;;;;;;;;;;;;;;;;4170561;28;1910;-61
2022/04/06 06:23:59;;;;;;;;;;;;;;;;;;4170299;28;957;-61
2022/04/06 06:26:20;;;;;;;;;;;;;;;;;;4170455;28;1261;-62
2022/04/06 06:28:41;;;;;;;;;;;;;;;;;;4175299;28;1259;-61
2022/04/06 06:31:01;;;;;;;;;;;;;;;;;;4186788;28;930;-61
2022/04/06 06:33:22;;;;;;;;;;;;;;;;;;4186655;28;1210;-61
2022/04/06 06:35:45;;;;;;;;;;;;;;;;;;4186683;28;1667;-62
2022/04/06 06:38:05;;;;;;;;;;;;;;;;;;4186615;28;949;-61
2022/04/06 06:40:26;;;;;;;;;;;;;;;;;;4186603;28;1142;-61
2022/04/06 06:42:47;;;;;;;;;;;;;;;;;;4186665;28;1906;-61
2022/04/06 06:45:08;;;;;;;;;;;;;;;;;;4186778;28;1074;-60
2022/04/06 06:47:28;;;;;;;;;;;;;;;;;;4186766;28;1163;-60
2022/04/06 06:49:49;;;;;;;;;;;;;;;;;;4186131;28;2022;-60
2022/04/06 06:52:10;;;;;;;;;;;;;;;;;;4185557;28;1517;-60
2022/04/06 06:54:31;;;;;;;;;;;;;;;;;;4175482;28;1886;-60
2022/04/06 06:56:51;;;;;;;;;;;;;;;;;;4170662;28;1711;-60
2022/04/06 06:59:12;;;;;;;;;;;;;;;;;;4170277;28;1399;-60
2022/04/06 07:01:33;;;;;;;;;;;;;;;;;;4186020;28;1914;-61
2022/04/06 07:03:54;;;;;;;;;;;;;;;;;;4169184;28;1090;-60
2022/04/06 07:06:14;;;;;;;;;;;;;;;;;;4178276;28;1333;-60
2022/04/06 07:08:35;;;;;;;;;;;;;;;;;;4181762;28;2589;-60
2022/04/06 07:10:57;;;;;;;;;;;;;;;;;;4186055;28;1187;-60
2022/04/06 07:13:18;;;;;;;;;;;;;;;;;;4186335;28;869;-61
2022/04/06 07:15:38;;;;;;;;;;;;;;;;;;4186097;28;1084;-60
2022/04/06 07:18:00;;;;;;;;;;;;;;;;;;4185887;28;907;-60
2022/04/06 07:20:20;;;;;;;;;;;;;;;;;;4184668;28;1096;-60
2022/04/06 07:22:41;;;;;;;;;;;;;;;;;;4186014;28;1999;-60
2022/04/06 07:25:02;;;;;;;;;;;;;;;;;;4168872;28;2332;-61
2022/04/06 07:27:22;;;;;;;;;;;;;;;;;;4169791;28;2498;-60
2022/04/06 07:29:43;;;;;;;;;;;;;;;;;;4173786;28;2372;-61
2022/04/06 07:32:04;;;;;;;;;;;;;;;;;;4182937;28;1734;-61
2022/04/06 07:34:25;;;;;;;;;;;;;;;;;;4181995;28;3266;-61
2022/04/06 07:36:46;;;;;;;;;;;;;;;;;;4185594;28;881;-62
2022/04/06 07:39:06;;;;;;;;;;;;;;;;;;4187356;28;1055;-61
2022/04/06 07:41:28;;;;;;;;;;;;;;;;;;4188424;28;1013;-63
2022/04/06 07:43:48;;;;;;;;;;;;;;;;;;4188882;28;1001;-61
2022/04/06 07:46:09;;;;;;;;;;;;;;;;;;4188531;28;953;-61
2022/04/06 07:48:30;;;;;;;;;;;;;;;;;;4187320;28;1109;-61
2022/04/06 07:50:51;;;;;;;;;;;;;;;;;;4179363;28;2413;-61
2022/04/06 07:53:12;;;;;;;;;;;;;;;;;;4173551;28;1649;-63
2022/04/06 07:55:33;;;;;;;;;;;;;;;;;;4188493;28;1361;-61
2022/04/06 07:57:54;;;;;;;;;;;;;;;;;;4183735;28;3203;-61
2022/04/06 08:00:15;;;;;;;;;;;;;;;;;;4182379;28;1967;-61
2022/04/06 08:02:37;;;;;;;;;;;;;;;;;;4188403;28;1983;-61
2022/04/06 08:04:58;;;;;;;;;;;;;;;;;;4182196;28;2530;-61
2022/04/06 08:07:18;;;;;;;;;;;;;;;;;;4187176;28;1971;-61
2022/04/06 08:09:40;;;;;;;;;;;;;;;;;;4188096;28;1443;-61
2022/04/06 08:12:01;;;;;;;;;;;;;;;;;;4188580;28;1192;-61
2022/04/06 08:14:22;;;;;;;;;;;;;;;;;;4169025;28;2258;-61
2022/04/06 08:16:43;;;;;;;;;;;;;;;;;;4171423;28;2583;-61
2022/04/06 08:19:03;;;;;;;;;;;;;;;;;;4188395;28;951;-61
2022/04/06 08:21:29;;;;;;;;;;;;;;;;;;4176750;28;2398;-61
2022/04/06 08:26:43;;;;;;;;;;;;;;;;;;4177513;28;1510;-61
2022/04/06 08:29:04;;;;;;;;;;;;;;;;;;4187970;28;1254;-62
2022/04/06 08:31:30;;;;;;;;;;;;;;;;;;4168490;28;1109;-57
2022/04/06 08:33:50;;;;;;;;;;;;;;;;;;4187485;28;1218;-57
2022/04/06 08:36:12;;;;;;;;;;;;;;;;;;4187649;28;1220;-67
2022/04/06 08:38:32;;;;;;;;;;;;;;;;;;4175990;28;1191;-67
2022/04/06 08:40:53;;;;;;;;;;;;;;;;;;4187410;28;1193;-66
2022/04/06 08:43:17;;;;;;;;;;;;;;;;;;4187391;28;1975;-66
2022/04/06 08:45:38;;;;;;;;;;;;;;;;;;4187742;28;976;-62
2022/04/06 08:47:58;;;;;;;;;;;;;;;;;;4187081;28;1751;-63
2022/04/06 08:50:19;;;;;;;;;;;;;;;;;;4187821;28;1406;-61
2022/04/06 08:52:40;;;;;;;;;;;;;;;;;;4188636;28;1001;-63
2022/04/06 08:55:00;;;;;;;;;;;;;;;;;;4177185;28;1310;-61
2022/04/06 08:57:21;;;;;;;;;;;;;;;;;;4184731;28;3598;-66
2022/04/06 08:59:42;;;;;;;;;;;;;;;;;;4172212;28;899;-65
2022/04/06 09:02:02;;;;;;;;;;;;;;;;;;4175207;28;1587;-65
2022/04/06 09:04:23;;;;;;;;;;;;;;;;;;4185966;28;1002;-62
2022/04/06 09:06:44;;;;;;;;;;;;;;;;;;4181493;28;2636;-62
2022/04/06 09:09:05;;;;;;;;;;;;;;;;;;4181023;28;1406;-63
2022/04/06 09:11:29;;;;;;;;;;;;;;;;;;4185783;28;1871;-65
2022/04/06 09:13:49;;;;;;;;;;;;;;;;;;4185946;28;2275;-63
2022/04/06 09:16:10;;;;;;;;;;;;;;;;;;4183526;28;1687;-62
2022/04/06 09:18:31;;;;;;;;;;;;;;;;;;4183863;28;1541;-64
2022/04/06 09:20:51;;;;;;;;;;;;;;;;;;4187157;28;2003;-63
2022/04/06 09:23:12;;;;;;;;;;;;;;;;;;4186705;28;2363;-67
2022/04/06 09:25:32;;;;;;;;;;;;;;;;;;4185513;28;1666;-64
2022/04/06 09:27:53;;;;;;;;;;;;;;;;;;4186291;28;950;-62
2022/04/06 09:30:13;;;;;;;;;;;;;;;;;;4182363;28;3319;-62
2022/04/06 09:32:34;;;;;;;;;;;;;;;;;;4182800;28;2498;-64
2022/04/06 09:34:54;;;;;;;;;;;;;;;;;;4184280;28;1812;-64
2022/04/06 09:37:15;;;;;;;;;;;;;;;;;;4186166;28;1277;-66
2022/04/06 09:39:35;;;;;;;;;;;;;;;;;;4178386;28;2992;-67
2022/04/06 09:41:55;;;;;;;;;;;;;;;;;;4183238;28;2813;-66
2022/04/06 09:49:29;;;;;;;;;;;;;;;;;;4180852;28;1164;-67
2022/04/06 09:51:50;;;;;;;;;;;;;;;;;;4186814;28;1065;-66
2022/04/06 09:54:12;;;;;;;;;;;;;;;;;;4184675;28;1899;-64
2022/04/06 09:56:32;;;;;;;;;;;;;;;;;;4186153;28;1172;-65
2022/04/06 09:58:53;;;;;;;;;;;;;;;;;;4177347;28;892;-64
2022/04/06 10:01:14;;;;;;;;;;;;;;;;;;4180553;28;1258;-64
2022/04/06 10:03:34;;;;;;;;;;;;;;;;;;4184673;28;1987;-62
2022/04/06 10:05:55;;;;;;;;;;;;;;;;;;4185391;28;882;-65
2022/04/06 10:08:17;;;;;;;;;;;;;;;;;;4184979;28;1269;-64
2022/04/06 10:10:38;;;;;;;;;;;;;;;;;;4186180;28;943;-64
2022/04/06 10:12:58;;;;;;;;;;;;;;;;;;4186394;28;958;-64
2022/04/06 10:15:18;;;;;;;;;;;;;;;;;;4186618;28;1007;-64
2022/04/06 10:17:38;;;;;;;;;;;;;;;;;;4186362;28;1011;-65
2022/04/06 10:19:59;;;;;;;;;;;;;;;;;;4186596;28;983;-64
2022/04/06 10:22:20;;;;;;;;;;;;;;;;;;4186702;28;810;-65
2022/04/06 10:24:40;;;;;;;;;;;;;;;;;;4186212;28;1914;-64
2022/04/06 10:27:00;;;;;;;;;;;;;;;;;;4186513;28;825;-64
2022/04/06 10:29:21;;;;;;;;;;;;;;;;;;4185133;28;1037;-64
2022/04/06 10:31:42;;;;;;;;;;;;;;;;;;4186623;28;999;-64
2022/04/06 10:34:02;;;;;;;;;;;;;;;;;;4186009;28;1233;-64
2022/04/06 10:36:23;;;;;;;;;;;;;;;;;;4182965;28;2962;-64
2022/04/06 10:38:43;;;;;;;;;;;;;;;;;;4166288;28;2624;-64
2022/04/06 10:41:04;;;;;;;;;;;;;;;;;;4171107;28;2470;-64
2022/04/06 10:43:24;;;;;;;;;;;;;;;;;;4167746;28;2615;-64
2022/04/06 10:45:45;;;;;;;;;;;;;;;;;;4166370;28;2587;-64
2022/04/06 10:48:06;;;;;;;;;;;;;;;;;;4182980;28;2626;-64
2022/04/06 10:50:27;;;;;;;;;;;;;;;;;;4175167;28;2277;-64
2022/04/06 10:52:48;;;;;;;;;;;;;;;;;;4169097;28;1932;-63
2022/04/06 10:55:09;;;;;;;;;;;;;;;;;;4183563;28;2668;-64
2022/04/06 10:57:30;;;;;;;;;;;;;;;;;;4173667;28;3133;-64
2022/04/06 10:59:50;;;;;;;;;;;;;;;;;;4172929;28;2913;-65
2022/04/06 11:02:10;;;;;;;;;;;;;;;;;;4175948;28;1817;-64
2022/04/06 11:04:31;;;;;;;;;;;;;;;;;;4177546;28;2555;-64
2022/04/06 11:06:55;;;;;;;;;;;;;;;;;;4172362;28;2716;-64
2022/04/06 11:11:53;;;;;;;;;;;;;;;;;;4170513;28;2267;-64
2022/04/06 11:14:14;;;;;;;;;;;;;;;;;;4180802;28;1135;-64
2022/04/06 11:16:34;;;;;;;;;;;;;;;;;;4180206;28;2002;-64
2022/04/06 11:18:54;;;;;;;;;;;;;;;;;;4172008;28;1039;-64
2022/04/06 11:21:15;;;;;;;;;;;;;;;;;;4178389;28;1514;-63
2022/04/06 11:23:35;;;;;;;;;;;;;;;;;;4180045;28;2853;-65
2022/04/06 11:25:55;;;;;;;;;;;;;;;;;;4172287;28;1009;-64
2022/04/06 11:28:16;;;;;;;;;;;;;;;;;;4172055;28;934;-64
2022/04/06 11:30:38;;;;;;;;;;;;;;;;;;4172114;28;1181;-64
2022/04/06 11:32:58;;;;;;;;;;;;;;;;;;4173180;28;1139;-63
2022/04/06 11:35:19;;;;;;;;;;;;;;;;;;4178581;28;2255;-64
2022/04/06 11:37:40;;;;;;;;;;;;;;;;;;4188722;28;1033;-63
2022/04/06 11:40:02;;;;;;;;;;;;;;;;;;4171062;28;1930;-64
2022/04/06 11:42:25;;;;;;;;;;;;;;;;;;4171957;28;957;-64
2022/04/06 11:44:45;;;;;;;;;;;;;;;;;;4178758;28;1906;-64
2022/04/06 11:47:06;;;;;;;;;;;;;;;;;;4184350;28;2176;-64
2022/04/06 11:49:29;;;;;;;;;;;;;;;;;;4177209;28;1432;-63
2022/04/06 11:51:49;;;;;;;;;;;;;;;;;;4170807;28;1199;-63
2022/04/06 11:54:10;;;;;;;;;;;;;;;;;;4180514;28;3624;-63
2022/04/06 11:56:31;;;;;;;;;;;;;;;;;;4184307;28;1686;-63
2022/04/06 11:58:55;;;;;;;;;;;;;;;;;;4187611;28;1887;-63
2022/04/06 12:01:18;;;;;;;;;;;;;;;;;;4188330;28;1256;-63
2022/04/06 12:03:38;;;;;;;;;;;;;;;;;;4186023;28;1993;-62
2022/04/06 12:05:59;;;;;;;;;;;;;;;;;;4182743;28;1266;-64
2022/04/06 12:08:19;;;;;;;;;;;;;;;;;;4186926;28;1243;-63
2022/04/06 12:10:40;;;;;;;;;;;;;;;;;;4187128;28;877;-64
2022/04/06 12:13:00;;;;;;;;;;;;;;;;;;4188145;28;907;-64
2022/04/06 12:15:21;;;;;;;;;;;;;;;;;;4182511;28;3066;-62
2022/04/06 12:17:45;;;;;;;;;;;;;;;;;;4179132;28;1122;-63
2022/04/06 12:20:05;;;;;;;;;;;;;;;;;;4187764;28;998;-64
2022/04/06 12:22:26;;;;;;;;;;;;;;;;;;4170722;28;927;-63
2022/04/06 12:24:46;;;;;;;;;;;;;;;;;;4174333;28;1948;-63
2022/04/06 12:27:07;;;;;;;;;;;;;;;;;;4183005;28;1795;-63
2022/04/06 12:29:28;;;;;;;;;;;;;;;;;;4181349;28;950;-62
2022/04/06 12:31:48;;;;;;;;;;;;;;;;;;4185145;28;1802;-67
2022/04/06 12:34:09;;;;;;;;;;;;;;;;;;4176197;28;1609;-65
2022/04/06 12:36:30;;;;;;;;;;;;;;;;;;4187198;28;876;-65
2022/04/06 12:38:51;;;;;;;;;;;;;;;;;;4187633;28;1186;-66
2022/04/06 12:41:12;;;;;;;;;;;;;;;;;;4187623;28;1295;-65
2022/04/06 12:43:32;;;;;;;;;;;;;;;;;;4175473;28;2839;-65
2022/04/06 12:45:53;;;;;;;;;;;;;;;;;;4171833;28;941;-66
2022/04/06 12:48:14;;;;;;;;;;;;;;;;;;4180007;28;2229;-65
2022/04/06 12:50:34;;;;;;;;;;;;;;;;;;4187217;28;2314;-64
2022/04/06 12:52:55;;;;;;;;;;;;;;;;;;4186169;28;3348;-65
2022/04/06 12:55:16;;;;;;;;;;;;;;;;;;4186298;28;2397;-62
2022/04/06 12:57:36;;;;;;;;;;;;;;;;;;4180416;28;1937;-64
2022/04/06 12:59:56;;;;;;;;;;;;;;;;;;4183310;28;2309;-61
2022/04/06 13:02:17;;;;;;;;;;;;;;;;;;4169387;28;2009;-62
2022/04/06 13:04:39;;;;;;;;;;;;;;;;;;4169473;28;1984;-63
2022/04/06 13:07:00;;;;;;;;;;;;;;;;;;4168498;28;1038;-61
2022/04/06 13:09:20;;;;;;;;;;;;;;;;;;4168967;28;906;-62
2022/04/06 13:11:41;;;;;;;;;;;;;;;;;;4174009;28;2933;-61
2022/04/06 13:14:01;;;;;;;;;;;;;;;;;;4180555;28;1480;-62
2022/04/06 13:16:27;;;;;;;;;;;;;;;;;;4186211;28;1113;-64
2022/04/06 13:18:47;;;;;;;;;;;;;;;;;;4186019;28;1911;-62
2022/04/06 13:21:09;;;;;;;;;;;;;;;;;;4186067;28;1207;-65
2022/04/06 13:23:30;;;;;;;;;;;;;;;;;;4184521;28;2363;-63
2022/04/06 13:25:51;;;;;;;;;;;;;;;;;;4184365;28;1910;-63
2022/04/06 13:28:12;;;;;;;;;;;;;;;;;;4187766;28;1864;-62
2022/04/06 13:30:33;;;;;;;;;;;;;;;;;;4176762;28;1136;-61
2022/04/06 13:32:54;;;;;;;;;;;;;;;;;;4182508;28;1646;-62
2022/04/06 13:35:14;;;;;;;;;;;;;;;;;;4187041;28;1103;-61
2022/04/06 13:37:35;;;;;;;;;;;;;;;;;;4183350;28;1919;-59
2022/04/06 13:39:56;;;;;;;;;;;;;;;;;;4183234;28;1936;-59
2022/04/06 13:42:17;;;;;;;;;;;;;;;;;;4185688;28;1890;-59
2022/04/06 13:44:37;;;;;;;;;;;;;;;;;;4182740;28;1909;-59
2022/04/06 13:46:58;;;;;;;;;;;;;;;;;;4180660;28;2109;-59
2022/04/06 13:49:19;;;;;;;;;;;;;;;;;;4185291;28;1848;-59
2022/04/06 13:51:40;;;;;;;;;;;;;;;;;;4184037;28;1642;-59
2022/04/06 13:54:01;;;;;;;;;;;;;;;;;;4181847;28;2337;-59
2022/04/06 13:56:21;;;;;;;;;;;;;;;;;;4182149;28;1554;-59
2022/04/06 13:58:42;;;;;;;;;;;;;;;;;;4181436;28;1813;-62
2022/04/06 14:01:03;;;;;;;;;;;;;;;;;;4182281;28;1587;-62
2022/04/06 14:03:24;;;;;;;;;;;;;;;;;;4178900;28;2379;-63
2022/04/06 14:05:45;;;;;;;;;;;;;;;;;;4168631;28;1918;-64
2022/04/06 14:08:05;;;;;;;;;;;;;;;;;;4170803;28;1739;-63
2022/04/06 14:10:26;;;;;;;;;;;;;;;;;;4183020;28;1439;-64
2022/04/06 14:12:47;;;;;;;;;;;;;;;;;;4185503;28;1001;-66
2022/04/06 14:15:08;;;;;;;;;;;;;;;;;;4185679;28;873;-63
2022/04/06 14:17:28;;;;;;;;;;;;;;;;;;4184824;28;1296;-62
2022/04/06 14:19:49;;;;;;;;;;;;;;;;;;4185727;28;835;-64
2022/04/06 14:22:10;;;;;;;;;;;;;;;;;;4185545;28;1386;-62
2022/04/06 14:24:30;;;;;;;;;;;;;;;;;;4185098;28;1985;-62
2022/04/06 14:26:51;;;;;;;;;;;;;;;;;;4180591;28;1000;-62
2022/04/06 14:29:12;;;;;;;;;;;;;;;;;;4181916;28;1466;-60
2022/04/06 14:31:33;;;;;;;;;;;;;;;;;;4185159;28;1132;-61
2022/04/06 14:33:53;;;;;;;;;;;;;;;;;;4184875;28;1101;-64
2022/04/06 14:36:14;;;;;;;;;;;;;;;;;;4183906;28;1784;-63
2022/04/06 14:38:34;;;;;;;;;;;;;;;;;;4172136;28;1112;-63
2022/04/06 14:40:57;;;;;;;;;;;;;;;;;;4167397;28;1221;-63
2022/04/06 14:43:18;;;;;;;;;;;;;;;;;;4168661;28;856;-63
2022/04/06 14:45:38;;;;;;;;;;;;;;;;;;4168082;28;1914;-62
2022/04/06 14:47:59;;;;;;;;;;;;;;;;;;4180647;28;1384;-63
2022/04/06 14:50:20;;;;;;;;;;;;;;;;;;4185125;28;1118;-63
2022/04/06 14:52:41;;;;;;;;;;;;;;;;;;4185737;28;1007;-62
2022/04/06 14:55:02;;;;;;;;;;;;;;;;;;4187622;28;1170;-64
2022/04/06 14:57:22;;;;;;;;;;;;;;;;;;4186786;28;1519;-64
2022/04/06 14:59:43;;;;;;;;;;;;;;;;;;4185895;28;946;-65
2022/04/06 15:02:04;;;;;;;;;;;;;;;;;;4184599;28;2919;-64
2022/04/06 15:04:25;;;;;;;;;;;;;;;;;;4173691;28;1203;-63
2022/04/06 15:06:45;;;;;;;;;;;;;;;;;;4184230;28;958;-63
2022/04/06 15:09:09;;;;;;;;;;;;;;;;;;4182852;28;1371;-64
2022/04/06 15:11:29;;;;;;;;;;;;;;;;;;4183465;28;825;-64
2022/04/06 15:13:50;;;;;;;;;;;;;;;;;;4183405;28;963;-64
2022/04/06 15:16:11;;;;;;;;;;;;;;;;;;4183006;28;1004;-64
2022/04/06 15:18:31;;;;;;;;;;;;;;;;;;4166514;28;829;-65
2022/04/06 15:20:52;;;;;;;;;;;;;;;;;;4173737;28;1616;-64
2022/04/06 15:23:13;;;;;;;;;;;;;;;;;;4181097;28;1517;-63
2022/04/06 15:25:33;;;;;;;;;;;;;;;;;;4180470;28;1886;-65
2022/04/06 15:27:53;;;;;;;;;;;;;;;;;;4183156;28;1999;-64
2022/04/06 15:30:14;;;;;;;;;;;;;;;;;;4182326;28;1744;-63
2022/04/06 15:32:35;;;;;;;;;;;;;;;;;;4179053;28;1318;-62
2022/04/06 15:37:34;;;;;;;;;;;;;;;;;;4182298;28;1725;-62
2022/04/06 15:39:55;;;;;;;;;;;;;;;;;;4182494;28;1727;-63
2022/04/06 15:42:17;;;;;;;;;;;;;;;;;;4180382;28;1836;-61
2022/04/06 15:44:38;;;;;;;;;;;;;;;;;;4178890;28;1978;-62
2022/04/06 15:47:01;;;;;;;;;;;;;;;;;;4176626;28;1485;-61
2022/04/06 15:49:21;;;;;;;;;;;;;;;;;;4178564;28;1744;-64
2022/04/06 15:51:42;;;;;;;;;;;;;;;;;;4184077;28;1075;-63
2022/04/06 15:54:03;;;;;;;;;;;;;;;;;;4166331;28;994;-64
2022/04/06 15:56:24;;;;;;;;;;;;;;;;;;4166343;28;1013;-64
2022/04/06 15:58:44;;;;;;;;;;;;;;;;;;4169367;28;952;-62
2022/04/06 16:01:05;;;;;;;;;;;;;;;;;;4176878;28;1584;-66
2022/04/06 16:03:26;;;;;;;;;;;;;;;;;;4187015;28;1939;-64
2022/04/06 16:05:47;;;;;;;;;;;;;;;;;;4186569;28;1970;-65
2022/04/06 16:08:08;;;;;;;;;;;;;;;;;;4188489;28;1024;-64
2022/04/06 16:10:29;;;;;;;;;;;;;;;;;;4184634;28;1571;-65
2022/04/06 16:12:49;;;;;;;;;;;;;;;;;;4172235;28;1968;-66
2022/04/06 16:15:11;;;;;;;;;;;;;;;;;;4185167;28;798;-64
2022/04/06 16:17:33;;;;;;;;;;;;;;;;;;4178041;28;1095;-64
2022/04/06 16:19:53;;;;;;;;;;;;;;;;;;4185234;28;950;-65
2022/04/06 16:22:14;;;;;;;;;;;;;;;;;;4185136;28;990;-64
2022/04/06 16:24:35;;;;;;;;;;;;;;;;;;4186991;28;949;-66
2022/04/06 16:26:55;;;;;;;;;;;;;;;;;;4187545;28;1981;-65
2022/04/06 16:29:16;;;;;;;;;;;;;;;;;;4169331;28;1178;-65
2022/04/06 16:31:37;;;;;;;;;;;;;;;;;;4170655;28;1269;-65
2022/04/06 16:33:59;;;;;;;;;;;;;;;;;;4183161;28;1064;-61
2022/04/06 16:36:20;;;;;;;;;;;;;;;;;;4184970;28;814;-59